sensor_id;sensor_type;location;lat;lon;timestamp;pressure;altitude;pressure_sealevel;temperature;humidity
54978;BME280;40873;47.522;19.106;2022-07-31T00:00:25;99952.25;;;19.55;82.44
54978;BME280;40873;47.522;19.106;2022-07-31T00:03:02;99954.25;;;19.53;83.32
54978;BME280;40873;47.522;19.106;2022-07-31T00:05:30;99958.91;;;19.51;83.03
54978;BME280;40873;47.522;19.106;2022-07-31T00:08:04;99961.44;;;19.53;82.86
54978;BME280;40873;47.522;19.106;2022-07-31T00:10:31;99959.91;;;19.50;82.35
54978;BME280;40873;47.522;19.106;2022-07-31T00:12:58;99942.38;;;19.48;82.18
54978;BME280;40873;47.522;19.106;2022-07-31T00:15:25;99945.31;;;19.36;81.65
54978;BME280;40873;47.522;19.106;2022-07-31T00:17:52;99939.13;;;19.36;82.45
54978;BME280;40873;47.522;19.106;2022-07-31T00:20:18;99943.63;;;19.35;82.62
54978;BME280;40873;47.522;19.106;2022-07-31T00:22:47;99936.75;;;19.33;83.12
54978;BME280;40873;47.522;19.106;2022-07-31T00:25:15;99943.09;;;19.32;82.43
54978;BME280;40873;47.522;19.106;2022-07-31T00:27:42;99947.94;;;19.28;82.84
54978;BME280;40873;47.522;19.106;2022-07-31T00:30:10;99944.22;;;19.21;83.59
54978;BME280;40873;47.522;19.106;2022-07-31T00:32:40;99947.94;;;19.28;81.65
54978;BME280;40873;47.522;19.106;2022-07-31T00:35:09;99948.97;;;19.35;81.27
54978;BME280;40873;47.522;19.106;2022-07-31T00:37:38;99953.84;;;19.40;81.02
54978;BME280;40873;47.522;19.106;2022-07-31T00:40:08;99954.53;;;19.42;80.13
54978;BME280;40873;47.522;19.106;2022-07-31T00:42:36;99958.69;;;19.36;79.94
54978;BME280;40873;47.522;19.106;2022-07-31T00:45:03;99959.00;;;19.33;79.50
54978;BME280;40873;47.522;19.106;2022-07-31T00:47:31;99954.50;;;19.34;78.72
54978;BME280;40873;47.522;19.106;2022-07-31T00:49:59;99952.78;;;19.33;78.74
54978;BME280;40873;47.522;19.106;2022-07-31T00:52:26;99953.59;;;19.25;79.14
54978;BME280;40873;47.522;19.106;2022-07-31T00:54:53;99942.53;;;19.20;79.21
54978;BME280;40873;47.522;19.106;2022-07-31T00:57:19;99947.72;;;19.22;78.63
54978;BME280;40873;47.522;19.106;2022-07-31T00:59:46;99948.34;;;19.15;78.99
54978;BME280;40873;47.522;19.106;2022-07-31T01:02:13;99941.50;;;19.13;79.36
54978;BME280;40873;47.522;19.106;2022-07-31T01:04:40;99952.75;;;19.25;78.56
54978;BME280;40873;47.522;19.106;2022-07-31T01:07:10;99942.34;;;19.13;79.44
54978;BME280;40873;47.522;19.106;2022-07-31T01:09:37;99952.88;;;19.15;78.61
54978;BME280;40873;47.522;19.106;2022-07-31T01:12:47;99950.56;;;19.20;78.42
54978;BME280;40873;47.522;19.106;2022-07-31T01:15:20;99947.13;;;19.10;79.48
54978;BME280;40873;47.522;19.106;2022-07-31T01:17:49;99958.66;;;19.10;78.92
54978;BME280;40873;47.522;19.106;2022-07-31T01:20:18;99952.03;;;19.14;79.15
54978;BME280;40873;47.522;19.106;2022-07-31T01:30:47;99961.13;;;19.04;78.68
54978;BME280;40873;47.522;19.106;2022-07-31T01:33:45;99960.50;;;19.10;78.84
54978;BME280;40873;47.522;19.106;2022-07-31T01:36:18;99962.56;;;19.16;78.17
54978;BME280;40873;47.522;19.106;2022-07-31T01:38:49;99964.28;;;19.25;77.41
54978;BME280;40873;47.522;19.106;2022-07-31T01:41:20;99976.31;;;19.21;76.96
54978;BME280;40873;47.522;19.106;2022-07-31T01:43:52;99963.84;;;19.12;77.34
54978;BME280;40873;47.522;19.106;2022-07-31T01:46:20;99953.66;;;19.07;77.26
54978;BME280;40873;47.522;19.106;2022-07-31T01:48:48;99958.66;;;19.10;77.50
54978;BME280;40873;47.522;19.106;2022-07-31T01:51:18;99964.56;;;19.14;77.21
54978;BME280;40873;47.522;19.106;2022-07-31T01:53:47;99958.41;;;18.96;77.80
54978;BME280;40873;47.522;19.106;2022-07-31T01:56:16;99951.06;;;18.98;77.31
54978;BME280;40873;47.522;19.106;2022-07-31T01:58:45;99965.97;;;19.00;77.35
54978;BME280;40873;47.522;19.106;2022-07-31T02:01:13;99961.50;;;19.09;77.13
54978;BME280;40873;47.522;19.106;2022-07-31T02:03:42;99953.88;;;19.14;77.50
54978;BME280;40873;47.522;19.106;2022-07-31T02:06:16;99950.03;;;19.16;76.94
54978;BME280;40873;47.522;19.106;2022-07-31T02:08:49;99955.50;;;19.07;77.02
54978;BME280;40873;47.522;19.106;2022-07-31T02:11:19;99952.50;;;19.10;77.74
54978;BME280;40873;47.522;19.106;2022-07-31T02:13:48;99964.81;;;19.03;77.01
54978;BME280;40873;47.522;19.106;2022-07-31T02:16:16;99957.53;;;19.13;77.57
54978;BME280;40873;47.522;19.106;2022-07-31T02:18:46;99956.47;;;19.32;76.10
54978;BME280;40873;47.522;19.106;2022-07-31T02:21:14;99952.88;;;19.15;76.45
54978;BME280;40873;47.522;19.106;2022-07-31T02:23:41;99950.47;;;19.12;76.86
54978;BME280;40873;47.522;19.106;2022-07-31T02:26:08;99947.94;;;19.28;76.02
54978;BME280;40873;47.522;19.106;2022-07-31T02:28:41;99950.69;;;19.18;76.01
54978;BME280;40873;47.522;19.106;2022-07-31T02:31:09;99943.69;;;19.17;75.73
54978;BME280;40873;47.522;19.106;2022-07-31T02:33:38;99940.31;;;19.15;75.62
54978;BME280;40873;47.522;19.106;2022-07-31T02:36:07;99936.28;;;19.37;75.15
54978;BME280;40873;47.522;19.106;2022-07-31T02:38:35;99940.97;;;19.09;75.35
54978;BME280;40873;47.522;19.106;2022-07-31T02:41:03;99940.97;;;19.09;77.36
54978;BME280;40873;47.522;19.106;2022-07-31T02:43:32;99933.50;;;18.95;75.67
54978;BME280;40873;47.522;19.106;2022-07-31T02:46:02;99937.59;;;18.81;76.28
54978;BME280;40873;47.522;19.106;2022-07-31T02:48:30;99944.44;;;18.84;76.06
54978;BME280;40873;47.522;19.106;2022-07-31T02:50:57;99938.03;;;18.77;76.49
54978;BME280;40873;47.522;19.106;2022-07-31T02:53:25;99939.19;;;18.74;76.32
54978;BME280;40873;47.522;19.106;2022-07-31T02:55:52;99942.31;;;18.70;76.23
54978;BME280;40873;47.522;19.106;2022-07-31T02:58:20;99940.19;;;18.73;77.01
54978;BME280;40873;47.522;19.106;2022-07-31T03:00:47;99943.53;;;18.75;75.55
54978;BME280;40873;47.522;19.106;2022-07-31T03:03:14;99939.88;;;18.58;76.29
54978;BME280;40873;47.522;19.106;2022-07-31T03:05:41;99938.13;;;18.67;76.78
54978;BME280;40873;47.522;19.106;2022-07-31T03:08:07;99938.53;;;18.72;77.31
54978;BME280;40873;47.522;19.106;2022-07-31T03:10:34;99937.81;;;18.70;77.21
54978;BME280;40873;47.522;19.106;2022-07-31T03:13:02;99935.53;;;18.57;77.53
54978;BME280;40873;47.522;19.106;2022-07-31T03:15:30;99941.34;;;18.71;76.18
54978;BME280;40873;47.522;19.106;2022-07-31T03:17:58;99940.88;;;18.75;76.70
54978;BME280;40873;47.522;19.106;2022-07-31T03:20:27;99939.88;;;18.58;76.10
54978;BME280;40873;47.522;19.106;2022-07-31T03:22:54;99946.34;;;18.56;77.01
54978;BME280;40873;47.522;19.106;2022-07-31T03:25:22;99939.81;;;18.68;77.62
54978;BME280;40873;47.522;19.106;2022-07-31T03:27:49;99932.69;;;18.59;77.99
54978;BME280;40873;47.522;19.106;2022-07-31T03:30:23;99934.59;;;18.49;76.98
54978;BME280;40873;47.522;19.106;2022-07-31T03:32:52;99928.66;;;18.55;76.47
54978;BME280;40873;47.522;19.106;2022-07-31T03:35:19;99935.31;;;18.51;76.89
54978;BME280;40873;47.522;19.106;2022-07-31T03:37:46;99931.69;;;18.60;76.88
54978;BME280;40873;47.522;19.106;2022-07-31T03:40:13;99921.34;;;18.57;77.39
54978;BME280;40873;47.522;19.106;2022-07-31T03:42:41;99935.88;;;18.62;76.23
54978;BME280;40873;47.522;19.106;2022-07-31T03:45:09;99934.00;;;18.55;76.35
54978;BME280;40873;47.522;19.106;2022-07-31T03:47:38;99943.47;;;18.67;76.67
54978;BME280;40873;47.522;19.106;2022-07-31T03:50:06;99943.38;;;18.77;76.57
54978;BME280;40873;47.522;19.106;2022-07-31T03:52:33;99937.97;;;18.69;75.82
54978;BME280;40873;47.522;19.106;2022-07-31T03:55:01;99935.06;;;18.62;76.07
54978;BME280;40873;47.522;19.106;2022-07-31T03:57:28;99933.47;;;18.69;76.66
54978;BME280;40873;47.522;19.106;2022-07-31T04:00:00;99936.53;;;18.74;75.37
54978;BME280;40873;47.522;19.106;2022-07-31T04:02:29;99944.03;;;18.71;75.68
54978;BME280;40873;47.522;19.106;2022-07-31T04:04:58;99935.06;;;18.62;76.00
54978;BME280;40873;47.522;19.106;2022-07-31T04:07:25;99934.38;;;18.60;75.85
54978;BME280;40873;47.522;19.106;2022-07-31T04:09:52;99942.38;;;18.60;75.94
54978;BME280;40873;47.522;19.106;2022-07-31T04:12:19;99937.38;;;18.57;76.82
54978;BME280;40873;47.522;19.106;2022-07-31T04:14:45;99942.66;;;18.67;75.88
54978;BME280;40873;47.522;19.106;2022-07-31T04:17:13;99942.03;;;18.73;75.92
54978;BME280;40873;47.522;19.106;2022-07-31T04:19:39;99945.22;;;18.76;75.63
54978;BME280;40873;47.522;19.106;2022-07-31T04:22:06;99949.38;;;18.71;75.96
54978;BME280;40873;47.522;19.106;2022-07-31T04:24:34;99946.91;;;18.59;76.22
54978;BME280;40873;47.522;19.106;2022-07-31T04:27:01;99943.97;;;18.88;76.07
54978;BME280;40873;47.522;19.106;2022-07-31T04:29:34;99950.94;;;18.81;75.07
54978;BME280;40873;47.522;19.106;2022-07-31T04:32:02;99943.38;;;18.59;76.21
54978;BME280;40873;47.522;19.106;2022-07-31T04:34:29;99948.88;;;18.75;76.26
54978;BME280;40873;47.522;19.106;2022-07-31T04:36:56;99946.22;;;18.75;76.14
54978;BME280;40873;47.522;19.106;2022-07-31T04:39:24;99949.66;;;18.85;75.53
54978;BME280;40873;47.522;19.106;2022-07-31T04:41:51;99943.56;;;18.57;76.49
54978;BME280;40873;47.522;19.106;2022-07-31T04:44:18;99954.38;;;18.56;76.54
54978;BME280;40873;47.522;19.106;2022-07-31T04:46:45;99932.69;;;18.59;76.49
54978;BME280;40873;47.522;19.106;2022-07-31T04:49:11;99933.16;;;18.54;76.62
54978;BME280;40873;47.522;19.106;2022-07-31T04:51:41;99941.19;;;18.37;77.72
54978;BME280;40873;47.522;19.106;2022-07-31T04:54:08;99939.19;;;18.39;77.38
54978;BME280;40873;47.522;19.106;2022-07-31T04:56:35;99939.88;;;18.41;77.76
54978;BME280;40873;47.522;19.106;2022-07-31T04:59:09;99937.19;;;18.41;78.36
54978;BME280;40873;47.522;19.106;2022-07-31T05:01:38;99956.44;;;18.26;78.46
54978;BME280;40873;47.522;19.106;2022-07-31T05:04:06;99948.50;;;18.34;78.62
54978;BME280;40873;47.522;19.106;2022-07-31T05:06:47;99955.06;;;18.22;79.39
54978;BME280;40873;47.522;19.106;2022-07-31T05:09:20;99957.63;;;18.14;80.93
54978;BME280;40873;47.522;19.106;2022-07-31T05:11:51;99959.09;;;18.26;79.46
54978;BME280;40873;47.522;19.106;2022-07-31T05:14:19;99965.34;;;18.17;81.49
54978;BME280;40873;47.522;19.106;2022-07-31T05:16:47;99971.59;;;18.08;83.17
54978;BME280;40873;47.522;19.106;2022-07-31T05:19:15;99973.19;;;17.73;87.15
54978;BME280;40873;47.522;19.106;2022-07-31T05:21:43;99973.97;;;17.46;89.66
54978;BME280;40873;47.522;19.106;2022-07-31T05:24:19;99973.97;;;17.37;91.53
54978;BME280;40873;47.522;19.106;2022-07-31T05:27:03;99967.81;;;17.36;92.73
54978;BME280;40873;47.522;19.106;2022-07-31T05:29:30;99970.50;;;17.26;91.50
54978;BME280;40873;47.522;19.106;2022-07-31T05:31:58;99975.31;;;17.13;93.81
54978;BME280;40873;47.522;19.106;2022-07-31T05:34:27;99974.22;;;17.06;95.39
54978;BME280;40873;47.522;19.106;2022-07-31T05:36:57;99970.25;;;17.10;95.63
54978;BME280;40873;47.522;19.106;2022-07-31T05:39:24;99966.31;;;17.14;94.46
54978;BME280;40873;47.522;19.106;2022-07-31T05:41:51;99965.41;;;16.86;97.07
54978;BME280;40873;47.522;19.106;2022-07-31T05:44:18;99965.63;;;17.03;96.83
54978;BME280;40873;47.522;19.106;2022-07-31T05:46:45;99964.91;;;17.10;96.38
54978;BME280;40873;47.522;19.106;2022-07-31T05:49:12;99950.03;;;17.27;95.59
54978;BME280;40873;47.522;19.106;2022-07-31T05:51:42;99967.22;;;17.42;93.98
54978;BME280;40873;47.522;19.106;2022-07-31T05:54:09;99963.63;;;17.34;94.33
54978;BME280;40873;47.522;19.106;2022-07-31T05:56:36;99956.88;;;17.30;95.52
54978;BME280;40873;47.522;19.106;2022-07-31T05:59:03;99952.28;;;17.22;94.07
54978;BME280;40873;47.522;19.106;2022-07-31T06:01:29;99964.41;;;16.87;95.85
54978;BME280;40873;47.522;19.106;2022-07-31T06:03:57;99962.59;;;16.88;97.23
54978;BME280;40873;47.522;19.106;2022-07-31T06:06:23;99969.44;;;17.00;96.62
54978;BME280;40873;47.522;19.106;2022-07-31T06:08:50;99960.72;;;17.08;96.06
54978;BME280;40873;47.522;19.106;2022-07-31T06:11:17;99961.44;;;17.00;96.31
54978;BME280;40873;47.522;19.106;2022-07-31T06:13:44;99964.50;;;17.15;94.45
54978;BME280;40873;47.522;19.106;2022-07-31T06:16:12;99960.19;;;17.04;96.53
54978;BME280;40873;47.522;19.106;2022-07-31T06:18:40;99965.38;;;17.06;95.95
54978;BME280;40873;47.522;19.106;2022-07-31T06:21:07;99963.69;;;17.05;96.35
54978;BME280;40873;47.522;19.106;2022-07-31T06:23:33;99964.09;;;17.10;95.27
54978;BME280;40873;47.522;19.106;2022-07-31T06:26:00;99964.94;;;17.01;96.85
54978;BME280;40873;47.522;19.106;2022-07-31T06:28:28;99966.66;;;16.92;96.80
54978;BME280;40873;47.522;19.106;2022-07-31T06:31:19;99977.84;;;17.05;96.33
54978;BME280;40873;47.522;19.106;2022-07-31T06:33:48;99968.56;;;17.19;96.55
54978;BME280;40873;47.522;19.106;2022-07-31T06:36:17;99968.09;;;17.33;94.32
54978;BME280;40873;47.522;19.106;2022-07-31T06:38:44;99965.00;;;17.38;94.94
54978;BME280;40873;47.522;19.106;2022-07-31T06:41:11;99965.06;;;17.56;94.75
54978;BME280;40873;47.522;19.106;2022-07-31T06:43:59;99967.81;;;17.36;93.41
54978;BME280;40873;47.522;19.106;2022-07-31T06:46:26;99969.31;;;17.48;92.87
54978;BME280;40873;47.522;19.106;2022-07-31T06:48:52;99969.63;;;17.36;93.38
54978;BME280;40873;47.522;19.106;2022-07-31T06:51:19;99974.81;;;17.37;93.30
54978;BME280;40873;47.522;19.106;2022-07-31T06:53:58;99979.50;;;17.25;93.98
54978;BME280;40873;47.522;19.106;2022-07-31T06:56:25;99970.47;;;17.46;93.36
54978;BME280;40873;47.522;19.106;2022-07-31T06:58:52;99968.75;;;17.45;92.91
54978;BME280;40873;47.522;19.106;2022-07-31T07:01:19;99968.38;;;17.40;92.83
54978;BME280;40873;47.522;19.106;2022-07-31T07:03:46;99960.06;;;17.43;93.06
54978;BME280;40873;47.522;19.106;2022-07-31T07:06:13;99963.75;;;17.69;92.27
54978;BME280;40873;47.522;19.106;2022-07-31T07:08:41;99968.06;;;17.80;90.58
54978;BME280;40873;47.522;19.106;2022-07-31T07:11:08;99964.72;;;17.78;90.59
54978;BME280;40873;47.522;19.106;2022-07-31T07:13:38;99966.72;;;17.94;90.00
54978;BME280;40873;47.522;19.106;2022-07-31T07:16:13;99957.03;;;18.02;89.57
54978;BME280;40873;47.522;19.106;2022-07-31T07:18:40;99962.00;;;18.15;88.53
54978;BME280;40873;47.522;19.106;2022-07-31T07:21:09;99950.84;;;18.02;88.53
54978;BME280;40873;47.522;19.106;2022-07-31T07:23:36;99951.28;;;17.97;89.38
54978;BME280;40873;47.522;19.106;2022-07-31T07:26:03;99968.25;;;17.69;89.29
54978;BME280;40873;47.522;19.106;2022-07-31T07:28:30;99949.19;;;17.73;90.01
54978;BME280;40873;47.522;19.106;2022-07-31T07:30:57;99954.34;;;18.02;89.07
54978;BME280;40873;47.522;19.106;2022-07-31T07:33:24;99950.03;;;17.92;86.96
54978;BME280;40873;47.522;19.106;2022-07-31T07:36:08;99942.13;;;18.00;87.99
54978;BME280;40873;47.522;19.106;2022-07-31T07:38:51;99949.13;;;18.46;87.26
54978;BME280;40873;47.522;19.106;2022-07-31T07:41:22;99941.53;;;18.77;85.44
54978;BME280;40873;47.522;19.106;2022-07-31T07:43:49;99947.72;;;19.22;83.42
54978;BME280;40873;47.522;19.106;2022-07-31T07:46:20;99947.06;;;19.20;82.19
54978;BME280;40873;47.522;19.106;2022-07-31T07:48:47;99946.03;;;18.95;82.96
54978;BME280;40873;47.522;19.106;2022-07-31T07:51:16;99947.03;;;18.94;82.15
54978;BME280;40873;47.522;19.106;2022-07-31T07:53:43;99949.53;;;18.95;82.24
54978;BME280;40873;47.522;19.106;2022-07-31T07:56:11;99951.91;;;18.98;81.76
54978;BME280;40873;47.522;19.106;2022-07-31T07:58:38;99963.63;;;18.79;82.21
54978;BME280;40873;47.522;19.106;2022-07-31T08:01:05;99954.31;;;19.09;81.84
54978;BME280;40873;47.522;19.106;2022-07-31T08:03:32;99950.91;;;19.25;80.65
54978;BME280;40873;47.522;19.106;2022-07-31T08:06:19;99963.28;;;19.52;79.56
54978;BME280;40873;47.522;19.106;2022-07-31T08:08:46;99964.97;;;19.95;77.92
54978;BME280;40873;47.522;19.106;2022-07-31T08:11:13;99965.47;;;19.57;78.19
54978;BME280;40873;47.522;19.106;2022-07-31T08:13:44;99978.84;;;19.57;78.98
54978;BME280;40873;47.522;19.106;2022-07-31T08:16:18;99975.78;;;19.43;79.62
54978;BME280;40873;47.522;19.106;2022-07-31T08:18:48;99983.44;;;19.64;78.14
54978;BME280;40873;47.522;19.106;2022-07-31T08:21:16;100005.31;;;19.34;79.17
54978;BME280;40873;47.522;19.106;2022-07-31T08:23:43;99990.34;;;19.23;79.15
54978;BME280;40873;47.522;19.106;2022-07-31T08:26:09;99986.56;;;19.08;79.90
54978;BME280;40873;47.522;19.106;2022-07-31T08:28:38;99993.59;;;19.09;80.30
54978;BME280;40873;47.522;19.106;2022-07-31T08:31:07;99988.34;;;19.51;78.79
54978;BME280;40873;47.522;19.106;2022-07-31T08:33:33;99994.50;;;19.43;78.83
54978;BME280;40873;47.522;19.106;2022-07-31T08:36:00;100001.53;;;19.44;77.42
54978;BME280;40873;47.522;19.106;2022-07-31T08:38:28;99985.47;;;19.44;77.91
54978;BME280;40873;47.522;19.106;2022-07-31T08:40:55;99993.00;;;19.41;77.74
54978;BME280;40873;47.522;19.106;2022-07-31T08:43:22;99986.59;;;19.60;77.13
54978;BME280;40873;47.522;19.106;2022-07-31T08:46:09;99992.00;;;20.10;75.53
54978;BME280;40873;47.522;19.106;2022-07-31T08:48:39;99984.53;;;20.38;73.76
54978;BME280;40873;47.522;19.106;2022-07-31T08:51:10;99982.16;;;20.19;73.92
54978;BME280;40873;47.522;19.106;2022-07-31T08:53:38;99983.91;;;20.02;74.11
54978;BME280;40873;47.522;19.106;2022-07-31T08:56:07;99987.78;;;19.99;74.99
54978;BME280;40873;47.522;19.106;2022-07-31T08:58:33;99994.50;;;20.04;73.41
54978;BME280;40873;47.522;19.106;2022-07-31T09:01:06;99991.63;;;19.97;73.67
54978;BME280;40873;47.522;19.106;2022-07-31T09:03:34;99991.19;;;20.18;72.83
54978;BME280;40873;47.522;19.106;2022-07-31T09:06:02;100005.44;;;20.35;71.38
54978;BME280;40873;47.522;19.106;2022-07-31T09:08:33;99994.88;;;20.17;70.88
54978;BME280;40873;47.522;19.106;2022-07-31T09:11:09;100009.47;;;19.88;71.52
54978;BME280;40873;47.522;19.106;2022-07-31T09:13:37;100011.53;;;20.03;70.91
54978;BME280;40873;47.522;19.106;2022-07-31T09:16:04;100016.13;;;20.18;70.38
54978;BME280;40873;47.522;19.106;2022-07-31T09:18:32;100016.41;;;20.49;68.37
54978;BME280;40873;47.522;19.106;2022-07-31T09:21:04;100032.53;;;20.74;67.92
54978;BME280;40873;47.522;19.106;2022-07-31T09:23:31;100024.84;;;20.20;68.60
54978;BME280;40873;47.522;19.106;2022-07-31T09:26:03;100035.06;;;20.25;69.59
54978;BME280;40873;47.522;19.106;2022-07-31T09:28:32;100034.56;;;20.80;67.79
54978;BME280;40873;47.522;19.106;2022-07-31T09:31:00;100032.19;;;20.61;67.91
54978;BME280;40873;47.522;19.106;2022-07-31T09:33:28;100047.09;;;20.71;66.87
54978;BME280;40873;47.522;19.106;2022-07-31T09:35:57;100035.53;;;20.63;66.63
54978;BME280;40873;47.522;19.106;2022-07-31T09:38:33;100031.81;;;20.47;67.62
54978;BME280;40873;47.522;19.106;2022-07-31T09:41:16;100037.06;;;20.98;66.45
54978;BME280;40873;47.522;19.106;2022-07-31T09:44:03;100040.25;;;20.93;66.77
54978;BME280;40873;47.522;19.106;2022-07-31T09:46:44;100039.06;;;21.20;66.23
54978;BME280;40873;47.522;19.106;2022-07-31T09:49:11;100032.53;;;21.06;66.07
54978;BME280;40873;47.522;19.106;2022-07-31T09:51:43;100037.75;;;21.16;66.17
54978;BME280;40873;47.522;19.106;2022-07-31T09:54:24;100025.66;;;21.04;65.39
54978;BME280;40873;47.522;19.106;2022-07-31T09:56:51;100024.16;;;21.18;66.29
54978;BME280;40873;47.522;19.106;2022-07-31T09:59:18;100039.91;;;21.04;65.35
54978;BME280;40873;47.522;19.106;2022-07-31T10:01:46;100035.25;;;21.15;66.52
54978;BME280;40873;47.522;19.106;2022-07-31T10:04:17;100034.72;;;21.11;65.69
54978;BME280;40873;47.522;19.106;2022-07-31T10:06:50;100032.34;;;20.67;66.96
54978;BME280;40873;47.522;19.106;2022-07-31T10:09:19;100030.50;;;20.68;67.66
54978;BME280;40873;47.522;19.106;2022-07-31T10:11:48;100039.03;;;20.71;66.37
54978;BME280;40873;47.522;19.106;2022-07-31T10:14:21;100040.91;;;20.79;66.25
54978;BME280;40873;47.522;19.106;2022-07-31T10:16:53;100036.03;;;20.66;65.13
54978;BME280;40873;47.522;19.106;2022-07-31T10:19:22;100023.28;;;20.52;66.47
54978;BME280;40873;47.522;19.106;2022-07-31T10:21:55;100034.06;;;21.01;65.71
54978;BME280;40873;47.522;19.106;2022-07-31T10:24:25;100018.66;;;21.36;64.00
54978;BME280;40873;47.522;19.106;2022-07-31T10:26:55;100028.53;;;21.43;64.50
54978;BME280;40873;47.522;19.106;2022-07-31T10:29:27;100032.22;;;21.50;64.48
54978;BME280;40873;47.522;19.106;2022-07-31T10:31:58;100034.91;;;20.93;64.99
54978;BME280;40873;47.522;19.106;2022-07-31T10:34:26;100016.81;;;20.87;66.46
54978;BME280;40873;47.522;19.106;2022-07-31T10:36:58;100034.69;;;20.70;66.83
54978;BME280;40873;47.522;19.106;2022-07-31T10:39:47;100020.59;;;20.52;67.25
54978;BME280;40873;47.522;19.106;2022-07-31T10:42:30;100032.47;;;20.49;68.56
54978;BME280;40873;47.522;19.106;2022-07-31T10:45:10;100024.38;;;20.33;68.82
54978;BME280;40873;47.522;19.106;2022-07-31T10:47:39;100040.41;;;20.67;68.01
54978;BME280;40873;47.522;19.106;2022-07-31T10:50:23;100022.81;;;20.97;66.67
54978;BME280;40873;47.522;19.106;2022-07-31T10:52:50;100033.22;;;21.33;65.68
54978;BME280;40873;47.522;19.106;2022-07-31T10:55:20;100044.41;;;21.77;63.90
54978;BME280;40873;47.522;19.106;2022-07-31T10:58:08;100049.13;;;21.59;63.46
54978;BME280;40873;47.522;19.106;2022-07-31T11:00:36;100051.69;;;21.36;63.79
54978;BME280;40873;47.522;19.106;2022-07-31T11:03:17;100059.03;;;21.26;64.15
54978;BME280;40873;47.522;19.106;2022-07-31T11:05:58;100070.31;;;21.29;65.27
54978;BME280;40873;47.522;19.106;2022-07-31T11:08:43;100082.00;;;20.96;64.69
54978;BME280;40873;47.522;19.106;2022-07-31T11:11:10;100067.88;;;20.69;66.43
54978;BME280;40873;47.522;19.106;2022-07-31T11:13:58;100075.97;;;20.43;67.41
54978;BME280;40873;47.522;19.106;2022-07-31T11:16:26;100070.34;;;20.46;67.09
54978;BME280;40873;47.522;19.106;2022-07-31T11:19:05;100072.19;;;20.46;67.80
54978;BME280;40873;47.522;19.106;2022-07-31T11:21:35;100075.53;;;20.48;67.66
54978;BME280;40873;47.522;19.106;2022-07-31T11:24:19;100064.63;;;20.49;67.93
54978;BME280;40873;47.522;19.106;2022-07-31T11:29:30;100079.41;;;20.53;66.41
54978;BME280;40873;47.522;19.106;2022-07-31T11:32:18;100087.16;;;20.81;65.29
54978;BME280;40873;47.522;19.106;2022-07-31T11:34:53;100068.38;;;20.73;66.47
54978;BME280;40873;47.522;19.106;2022-07-31T11:37:22;100067.09;;;21.10;66.38
54978;BME280;40873;47.522;19.106;2022-07-31T11:39:51;100065.72;;;21.14;64.36
54978;BME280;40873;47.522;19.106;2022-07-31T11:42:20;100079.47;;;21.27;64.07
54978;BME280;40873;47.522;19.106;2022-07-31T11:45:03;100068.25;;;21.23;63.71
54978;BME280;40873;47.522;19.106;2022-07-31T11:47:50;100080.16;;;21.21;64.66
54978;BME280;40873;47.522;19.106;2022-07-31T11:50:41;100078.78;;;20.84;64.54
54978;BME280;40873;47.522;19.106;2022-07-31T11:53:09;100091.16;;;20.77;64.39
54978;BME280;40873;47.522;19.106;2022-07-31T11:55:56;100085.34;;;20.39;64.96
54978;BME280;40873;47.522;19.106;2022-07-31T11:58:28;100088.66;;;20.33;64.59
54978;BME280;40873;47.522;19.106;2022-07-31T12:00:58;100089.69;;;20.32;64.66
54978;BME280;40873;47.522;19.106;2022-07-31T12:03:36;100089.00;;;20.80;63.19
54978;BME280;40873;47.522;19.106;2022-07-31T12:06:04;100084.38;;;21.56;60.25
54978;BME280;40873;47.522;19.106;2022-07-31T12:08:32;100074.78;;;21.70;60.54
54978;BME280;40873;47.522;19.106;2022-07-31T12:11:04;100074.91;;;21.76;60.09
54978;BME280;40873;47.522;19.106;2022-07-31T12:13:31;100094.69;;;22.00;58.83
54978;BME280;40873;47.522;19.106;2022-07-31T12:16:04;100070.47;;;22.08;58.65
54978;BME280;40873;47.522;19.106;2022-07-31T12:21:10;100083.81;;;21.85;57.71
54978;BME280;40873;47.522;19.106;2022-07-31T12:23:45;100090.72;;;21.71;59.38
54978;BME280;40873;47.522;19.106;2022-07-31T12:26:31;100084.03;;;21.59;59.66
54978;BME280;40873;47.522;19.106;2022-07-31T12:31:28;100097.72;;;20.91;62.52
54978;BME280;40873;47.522;19.106;2022-07-31T12:33:55;100100.69;;;20.29;64.72
54978;BME280;40873;47.522;19.106;2022-07-31T12:36:22;100103.81;;;20.16;66.71
54978;BME280;40873;47.522;19.106;2022-07-31T12:39:00;100110.06;;;20.25;68.09
54978;BME280;40873;47.522;19.106;2022-07-31T12:41:29;100114.94;;;20.30;68.59
54978;BME280;40873;47.522;19.106;2022-07-31T12:44:12;100116.75;;;20.21;69.62
54978;BME280;40873;47.522;19.106;2022-07-31T12:46:40;100105.38;;;19.93;69.41
54978;BME280;40873;47.522;19.106;2022-07-31T12:49:07;100108.81;;;20.03;69.21
54978;BME280;40873;47.522;19.106;2022-07-31T12:51:35;100104.94;;;20.06;69.34
54978;BME280;40873;47.522;19.106;2022-07-31T12:54:14;100105.75;;;19.98;67.92
54978;BME280;40873;47.522;19.106;2022-07-31T12:56:41;100103.66;;;20.10;68.75
54978;BME280;40873;47.522;19.106;2022-07-31T12:59:09;100109.72;;;19.94;67.73
54978;BME280;40873;47.522;19.106;2022-07-31T13:01:36;100108.97;;;19.76;68.77
54978;BME280;40873;47.522;19.106;2022-07-31T13:04:04;100107.13;;;19.76;68.98
54978;BME280;40873;47.522;19.106;2022-07-31T13:06:34;100103.50;;;19.85;67.51
54978;BME280;40873;47.522;19.106;2022-07-31T13:09:02;100101.97;;;19.83;67.30
54978;BME280;40873;47.522;19.106;2022-07-31T13:11:29;100114.50;;;20.08;67.13
54978;BME280;40873;47.522;19.106;2022-07-31T13:14:17;100102.53;;;19.94;64.68
54978;BME280;40873;47.522;19.106;2022-07-31T13:16:45;100119.88;;;19.82;66.93
54978;BME280;40873;47.522;19.106;2022-07-31T13:19:13;100120.22;;;19.87;67.77